Wetterdaten: aktuell Mittwoch, 24.05.2017 23:10
Datum Zeit Temp. A. Feuchte A. Luftdruck Regen Wind Richtung Richtung Taupunkt Windchill Windben
24.05.2017 23:10 13,1 C 85 % 1019 hPa 0,0 l/m 11,2 km/h (2 Bft) W-NW 292 10,6 C 10,4 C 13,3 km/h (3 Bft)
24.05.2017 22:10 13,7 C 80 % 1019 hPa 0,0 l/m 11,2 km/h (2 Bft) W-NW 292 10,3 C 11,1 C 15,5 km/h (3 Bft)
24.05.2017 21:10 14,6 C 70 % 1019 hPa 0,0 l/m 15,1 km/h (3 Bft) NW 315 9,2 C 10,7 C 19,8 km/h (3 Bft)
24.05.2017 20:10 15,6 C 65 % 1019 hPa 0,0 l/m 13,0 km/h (3 Bft) NW 315 9,0 C 12,6 C 15,5 km/h (3 Bft)
24.05.2017 19:10 17,2 C 56 % 1019 hPa 0,0 l/m 20,5 km/h (4 Bft) N 360 8,3 C 12,5 C 20,5 km/h (4 Bft)
24.05.2017 18:10 17,2 C 56 % 1019 hPa 0,0 l/m 20,5 km/h (4 Bft) N 360 8,3 C 12,5 C 20,5 km/h (4 Bft)
24.05.2017 17:10 17,3 C 56 % 1019 hPa 0,0 l/m 18,4 km/h (3 Bft) N-NW 337 8,4 C 13,1 C 22,0 km/h (4 Bft)
24.05.2017 16:10 17,0 C 53 % 1019 hPa 0,0 l/m 17,3 km/h (3 Bft) N-NW 337 7,4 C 13,0 C 22,0 km/h (4 Bft)
24.05.2017 15:10 14,4 C 64 % 1019 hPa 0,0 l/m 14,4 km/h (3 Bft) N 360 7,7 C 10,7 C 14,4 km/h (3 Bft)
24.05.2017 14:10 14,4 C 64 % 1019 hPa 0,0 l/m 14,4 km/h (3 Bft) N 360 7,7 C 10,7 C 14,4 km/h (3 Bft)
24.05.2017 13:10 14,4 C 64 % 1019 hPa 0,0 l/m 14,4 km/h (3 Bft) N 360 7,7 C 10,7 C 14,4 km/h (3 Bft)
24.05.2017 12:10 14,4 C 64 % 1018 hPa 0,0 l/m 14,4 km/h (3 Bft) N 360 7,7 C 10,7 C 14,4 km/h (3 Bft)
24.05.2017 11:11 14,4 C 64 % 1018 hPa 0,0 l/m 14,4 km/h (3 Bft) N 360 7,7 C 10,7 C 14,4 km/h (3 Bft)
24.05.2017 10:10 14,4 C 64 % 1018 hPa 0,0 l/m 14,4 km/h (3 Bft) N 360 7,7 C 10,7 C 14,4 km/h (3 Bft)
24.05.2017 09:10 14,4 C 64 % 1018 hPa 0,0 l/m 14,4 km/h (3 Bft) N 360 7,7 C 10,7 C 14,4 km/h (3 Bft)
24.05.2017 08:10 14,4 C 65 % 1018 hPa 0,0 l/m 22,3 km/h (4 Bft) N-NW 337 7,9 C 8,4 C 28,8 km/h (4 Bft)
24.05.2017 07:10 12,1 C 80 % 1017 hPa 0,0 l/m 11,9 km/h (2 Bft) N 360 8,8 C 9,0 C 11,9 km/h (2 Bft)
24.05.2017 06:10 11,6 C 82 % 1017 hPa 0,0 l/m 17,6 km/h (3 Bft) W-NW 292 8,6 C 6,1 C 19,8 km/h (3 Bft)
24.05.2017 05:10 11,6 C 84 % 1017 hPa 0,0 l/m 12,6 km/h (3 Bft) W-NW 292 9,0 C 8,1 C 17,6 km/h (3 Bft)
24.05.2017 04:10 11,5 C 84 % 1017 hPa 0,0 l/m 22,0 km/h (4 Bft) NW 315 8,9 C 4,6 C 24,1 km/h (4 Bft)
24.05.2017 03:10 11,6 C 83 % 1017 hPa 0,0 l/m 14,4 km/h (3 Bft) N-NW 337 8,8 C 7,3 C 19,8 km/h (3 Bft)
24.05.2017 02:10 11,8 C 81 % 1016 hPa 0,0 l/m 16,9 km/h (3 Bft) NW 315 8,6 C 6,6 C 19,8 km/h (3 Bft)
24.05.2017 01:10 12,3 C 79 % 1016 hPa 0,0 l/m 13,7 km/h (3 Bft) NW 315 8,8 C 8,4 C 17,6 km/h (3 Bft)
24.05.2017 00:10 12,9 C 77 % 1016 hPa 0,0 l/m 14,8 km/h (3 Bft) NW 315 9,0 C 8,7 C 19,8 km/h (3 Bft)
24.05.2017 00:00 12,8 C 77 % 1016 hPa 0,0 l/m 15,1 km/h (3 Bft) W-NW 292 8,9 C 8,5 C 17,6 km/h (3 Bft)
_ Min-Zeit 03:20 16:00 00:00 - 06:20 - - 16:00 04:20 20:40
Minimum _ 11,4 C 52 % 1016 hPa - 6,5 km/h (2 Bft) - - 7,2 C 4,2 C 8,6 km/h (2 Bft)
_ Max-Zeit 16:40 03:50 13:00 00:00 04:20 - - 23:10 16:40 08:10
Maximum _ 17,7 C 85 % 1019 hPa 0,0 l/m 24,1 km/h
W-NW (4 Bft)
- - 10,6 C 15,3 C 28,8 km/h
N-NW (4 Bft)
Durchschnitt _ 14,1 C 70 % 1018 hPa #0,0 l/m 15,0 km/h (3 Bft) N - 8,5 C 10,2 C 17,6 km/h (3 Bft)